Tuesday, January 15, 2019, 6:42 PM EST
Back to Local

KACK, Nantucket Memorial Airport

Location: Nantucket, MA, United States Lat: 41.25
Local Time: 6:42 PM EST (23:42 GMT) Lon: -70.067
Time Zone: US/Eastern Elev: 49 ft

Show me the last for .
Show Decoded

2019-01-15 17:53 METAR KACK 152253Z 00000KT 10SM CLR M04/M09 A3009 RMK AO2 SLP188 T10391089 =
2019-01-15 16:53 METAR KACK 152153Z 00000KT 10SM CLR M02/M09 A3007 RMK AO2 SLP183 T10171089 =
2019-01-15 15:53 METAR KACK 152053Z 32005KT 10SM CLR M01/M08 A3007 RMK AO2 SLP183 T10061083 51009
                 =
2019-01-15 14:53 METAR KACK 151953Z 34007KT 10SM CLR 00/M08 A3007 RMK AO2 SLP181 T00001078 =
2019-01-15 13:53 METAR KACK 151853Z 33010KT 10SM CLR 01/M08 A3005 RMK AO2 SLP176 T00061083 =
2019-01-15 12:53 METAR KACK 151753Z 35010KT 10SM CLR 01/M08 A3004 RMK AO2 SLP173 T00111078 10017
                 21050 56013 =
2019-01-15 11:53 METAR KACK 151653Z 34009KT 10SM CLR 01/M08 A3005 RMK AO2 SLP175 T00111083 =
2019-01-15 10:53 METAR KACK 151553Z 34008KT 10SM CLR 01/M08 A3007 RMK AO2 SLP183 T00061083 =
2019-01-15 09:53 METAR KACK 151453Z 30007KT 10SM CLR 01/M07 A3008 RMK AO2 SLP186 T00111072 53014
                 =
2019-01-15 08:53 METAR KACK 151353Z 32008KT 10SM CLR 00/M07 A3007 RMK AO2 SLP181 T00001072 =
2019-01-15 07:53 METAR KACK 151253Z 30005KT 10SM CLR M03/M07 A3005 RMK AO2 SLP174 T10281067 =
2019-01-15 06:53 METAR KACK 151153Z 28005KT 10SM CLR M06/M08 A3004 RMK AO2 SLP172 T10561078 11022
                 21056 53009 =
2019-01-15 05:53 METAR KACK 151053Z 31006KT 10SM CLR M03/M07 A3003 RMK AO2 SLP169 T10281067 =
2019-01-15 04:53 METAR KACK 150953Z AUTO 31006KT 10SM CLR M03/M07 A3001 RMK AO2 SLP163 T10281067
                 =
2019-01-15 03:53 METAR KACK 150853Z AUTO 31007KT 10SM CLR M03/M08 A3001 RMK AO2 SLP163 T10281078
                 58002 =
2019-01-15 02:53 METAR KACK 150753Z AUTO 32009KT 10SM CLR M02/M07 A3002 RMK AO2 SLP166 T10221072
                 =
2019-01-15 01:53 METAR KACK 150653Z AUTO 31011KT 10SM CLR M02/M07 A3002 RMK AO2 SLP166 T10221067
                 =
2019-01-15 00:53 METAR KACK 150553Z AUTO 32010KT 10SM CLR M02/M07 A3002 RMK AO2 SLP165 T10221067
                 10000 21022 58010 =
2019-01-14 23:53 METAR KACK 150453Z AUTO 33009KT 10SM CLR M02/M07 A3002 RMK AO2 SLP167 T10171067
                 400171017 =
2019-01-14 22:53 METAR KACK 150353Z AUTO 35008KT 10SM FEW025 M02/M07 A3005 RMK AO2 SLP174
                 T10171067 =
2019-01-14 22:23 METAR KACK 150323Z AUTO 35010KT 10SM SCT025 M02/M07 A3005 RMK AO2 T10171067 =
2019-01-14 21:53 METAR KACK 150253Z AUTO 36009KT 10SM BKN025 M02/M07 A3005 RMK AO2 SLP176
                 T10171067 56005 =
2019-01-14 20:53 METAR KACK 150153Z 35013KT 10SM OVC024 M01/M06 A3005 RMK AO2 SLP176 T10061056 =
2019-01-14 19:53 METAR KACK 150053Z 36012KT 10SM OVC023 M01/M06 A3006 RMK AO2 SLP178 T10061056 =
2019-01-14 18:53 METAR KACK 142353Z 36013KT 10SM OVC023 00/M05 A3007 RMK AO2 SLP181 T00001050
                 10017 20000 50002 =

Support USWX by starting your Amazon purchase here.